createdAt,value
2022-12-21T00:01:18.621Z,17.13
2022-12-21T00:03:46.262Z,18.20
2022-12-21T00:06:13.999Z,17.63
2022-12-21T00:08:45.864Z,17.90
2022-12-21T00:11:13.922Z,18.77
2022-12-21T00:13:42.657Z,18.23
2022-12-21T00:16:18.192Z,18.07
2022-12-21T00:18:45.341Z,17.30
2022-12-21T00:21:17.341Z,18.07
2022-12-21T00:23:45.433Z,18.50
2022-12-21T00:26:13.781Z,18.27
2022-12-21T00:28:40.925Z,17.03
2022-12-21T00:31:12.437Z,18.27
2022-12-21T00:33:40.191Z,17.10
2022-12-21T00:36:09.019Z,17.70
2022-12-21T00:38:35.711Z,16.97
2022-12-21T00:41:04.682Z,17.83
2022-12-21T00:43:33.395Z,17.87
2022-12-21T00:46:00.278Z,17.97
2022-12-21T00:48:28.392Z,18.57
2022-12-21T00:50:54.892Z,17.70
2022-12-21T00:53:21.638Z,17.97
2022-12-21T00:55:56.829Z,17.93
2022-12-21T00:58:24.811Z,18.87
2022-12-21T01:00:55.866Z,17.70
2022-12-21T01:03:23.747Z,17.80
2022-12-21T01:05:51.497Z,17.57
2022-12-21T01:08:19.957Z,17.43
2022-12-21T01:10:46.689Z,17.43
2022-12-21T01:13:14.010Z,16.17
2022-12-21T01:15:42.149Z,17.93
2022-12-21T01:18:09.655Z,17.47
2022-12-21T01:20:41.430Z,17.27
2022-12-21T01:23:08.508Z,18.37
2022-12-21T01:25:36.422Z,16.20
2022-12-21T01:28:03.788Z,17.00
2022-12-21T01:30:30.267Z,16.63
2022-12-21T01:32:56.620Z,17.77
2022-12-21T01:35:23.262Z,17.73
2022-12-21T01:37:49.607Z,17.50
2022-12-21T01:40:15.992Z,17.70
2022-12-21T01:42:42.323Z,18.23
2022-12-21T01:45:30.184Z,18.67
2022-12-21T01:48:04.390Z,17.27
2022-12-21T01:50:35.898Z,18.17
2022-12-21T01:53:08.281Z,18.07
2022-12-21T01:55:36.144Z,18.23
2022-12-21T01:58:05.077Z,19.60
2022-12-21T02:00:31.419Z,18.70
2022-12-21T02:03:01.685Z,19.77
2022-12-21T02:05:34.079Z,19.37
2022-12-21T02:08:03.313Z,18.40
2022-12-21T02:10:30.354Z,19.53
2022-12-21T02:13:01.841Z,18.30
2022-12-21T02:15:51.212Z,19.53
2022-12-21T02:18:39.687Z,18.60
2022-12-21T02:21:14.901Z,19.83
2022-12-21T02:23:49.054Z,18.87
2022-12-21T02:26:26.418Z,18.17
2022-12-21T02:29:12.796Z,17.90
2022-12-21T02:31:51.046Z,18.30
2022-12-21T02:34:44.699Z,16.23
2022-12-21T02:37:29.885Z,17.00
2022-12-21T02:40:01.605Z,17.53
2022-12-21T02:43:05.020Z,17.37
2022-12-21T02:45:38.405Z,17.37
2022-12-21T02:48:17.982Z,17.57
2022-12-21T02:50:50.456Z,17.10
2022-12-21T02:53:23.001Z,16.37
2022-12-21T02:55:49.369Z,15.93
2022-12-21T02:58:21.763Z,17.33
2022-12-21T03:01:07.917Z,17.37
2022-12-21T03:03:49.925Z,16.20
2022-12-21T03:06:29.991Z,18.63
2022-12-21T03:09:14.845Z,18.43
2022-12-21T03:12:07.077Z,18.27
2022-12-21T03:14:48.819Z,18.27
2022-12-21T03:17:33.539Z,19.33
2022-12-21T03:20:25.018Z,20.33
2022-12-21T03:22:58.467Z,23.17
2022-12-21T03:25:45.814Z,22.30
2022-12-21T03:28:20.298Z,22.23
2022-12-21T03:30:52.349Z,21.73
2022-12-21T03:33:23.591Z,22.77
2022-12-21T03:35:55.933Z,23.73
2022-12-21T03:38:27.406Z,22.60
2022-12-21T03:40:58.362Z,22.70
2022-12-21T03:43:30.787Z,21.37
2022-12-21T03:46:04.391Z,22.50
2022-12-21T03:48:40.184Z,22.17
2022-12-21T03:51:16.413Z,21.43
2022-12-21T03:53:51.900Z,22.53
2022-12-21T03:56:26.331Z,21.97
2022-12-21T03:58:52.711Z,23.73
2022-12-21T04:01:32.936Z,22.80
2022-12-21T04:04:06.069Z,23.77
2022-12-21T04:06:35.456Z,20.47
2022-12-21T04:09:05.285Z,20.77
2022-12-21T04:11:54.989Z,17.80
2022-12-21T04:14:21.814Z,18.70
2022-12-21T04:16:48.694Z,18.40
2022-12-21T04:19:38.016Z,18.37
2022-12-21T04:22:04.946Z,16.47
2022-12-21T04:24:50.013Z,16.17
2022-12-21T04:27:34.695Z,16.67
2022-12-21T04:30:01.051Z,18.33
2022-12-21T04:32:27.411Z,18.53
2022-12-21T04:34:53.818Z,18.00
2022-12-21T04:37:32.129Z,18.27
2022-12-21T04:39:59.628Z,17.63
2022-12-21T04:42:26.280Z,19.23
2022-12-21T04:44:52.881Z,18.57
2022-12-21T04:47:19.778Z,16.30
2022-12-21T04:49:46.752Z,16.23
2022-12-21T04:52:13.197Z,17.17
2022-12-21T04:54:39.538Z,16.50
2022-12-21T04:57:05.884Z,16.70
2022-12-21T04:59:32.251Z,16.73
2022-12-21T05:01:58.783Z,18.77
2022-12-21T05:04:25.398Z,18.03
2022-12-21T05:06:51.752Z,16.70
2022-12-21T05:11:45.965Z,19.07
2022-12-21T05:14:12.379Z,18.60
2022-12-21T05:16:41.444Z,17.63
2022-12-21T05:19:07.904Z,17.53
2022-12-21T05:21:34.395Z,17.07
2022-12-21T05:24:00.736Z,17.77
2022-12-21T05:26:27.088Z,15.90
2022-12-21T05:28:53.758Z,15.30
2022-12-21T05:31:20.444Z,15.33
2022-12-21T05:33:46.943Z,13.80
2022-12-21T05:36:15.971Z,14.93
2022-12-21T05:38:42.675Z,13.20
2022-12-21T05:41:10.544Z,12.53
2022-12-21T05:43:36.906Z,11.40
2022-12-21T05:46:05.235Z,10.37
2022-12-21T05:48:32.686Z,9.67
2022-12-21T05:50:59.284Z,9.67
2022-12-21T05:53:25.759Z,9.73
2022-12-21T05:55:52.998Z,11.50
2022-12-21T05:58:20.037Z,12.93
2022-12-21T06:00:46.991Z,15.70
2022-12-21T06:03:13.371Z,15.60
2022-12-21T06:05:39.760Z,14.20
2022-12-21T06:08:06.221Z,14.47
2022-12-21T06:10:32.566Z,14.70
2022-12-21T06:12:58.921Z,15.07
2022-12-21T06:15:25.393Z,14.90
2022-12-21T06:17:51.951Z,14.93
2022-12-21T06:20:18.463Z,15.93
2022-12-21T06:22:45.390Z,16.47
2022-12-21T06:25:11.813Z,17.80
2022-12-21T06:27:38.141Z,17.80
2022-12-21T06:30:05.329Z,16.97
2022-12-21T06:32:31.678Z,17.87
2022-12-21T06:34:58.031Z,16.57
2022-12-21T06:37:24.396Z,18.47
2022-12-21T06:39:50.731Z,18.87
2022-12-21T06:42:17.073Z,17.93
2022-12-21T06:44:43.475Z,19.53
2022-12-21T06:47:09.846Z,19.33
2022-12-21T06:49:36.214Z,19.77
2022-12-21T06:52:02.554Z,19.63
2022-12-21T06:54:28.875Z,20.50
2022-12-21T06:56:55.732Z,17.63
2022-12-21T06:59:22.097Z,18.80
2022-12-21T07:01:48.495Z,18.20
2022-12-21T07:04:15.022Z,17.40
2022-12-21T07:06:42.479Z,16.43
2022-12-21T07:09:08.866Z,18.20
2022-12-21T07:11:35.224Z,15.30
2022-12-21T07:14:01.732Z,17.80
2022-12-21T07:16:28.141Z,17.67
2022-12-21T07:18:54.737Z,17.30
2022-12-21T07:21:22.548Z,18.77
2022-12-21T07:23:49.973Z,16.20
2022-12-21T07:26:19.360Z,15.67
2022-12-21T07:28:46.916Z,16.33
2022-12-21T07:31:16.951Z,16.80
2022-12-21T07:33:43.681Z,18.50
2022-12-21T07:36:10.752Z,16.97
2022-12-21T07:38:38.950Z,15.77
2022-12-21T07:41:08.208Z,16.07
2022-12-21T07:43:35.695Z,15.53
2022-12-21T07:46:13.130Z,16.60
2022-12-21T07:48:39.556Z,19.43
2022-12-21T07:51:06.923Z,17.57
2022-12-21T07:53:34.705Z,18.27
2022-12-21T07:56:03.174Z,19.33
2022-12-21T07:58:29.530Z,19.47
2022-12-21T08:00:59.944Z,17.37
2022-12-21T08:03:29.224Z,18.97
2022-12-21T08:05:55.691Z,15.37
2022-12-21T08:08:22.009Z,15.60
2022-12-21T08:10:48.357Z,14.47
2022-12-21T08:13:14.703Z,14.43
2022-12-21T08:15:41.067Z,15.10
2022-12-21T08:18:10.635Z,13.53
2022-12-21T08:20:37.315Z,14.73
2022-12-21T08:23:03.676Z,14.97
2022-12-21T08:25:30.918Z,15.97
2022-12-21T08:27:57.260Z,17.63
2022-12-21T08:30:23.700Z,16.27
2022-12-21T08:32:50.266Z,14.67
2022-12-21T08:35:16.963Z,15.90
2022-12-21T08:37:43.277Z,15.33
2022-12-21T08:40:10.122Z,14.93
2022-12-21T08:42:36.449Z,15.57
2022-12-21T08:45:02.908Z,14.40
2022-12-21T08:47:29.269Z,14.70
2022-12-21T08:49:55.650Z,14.07
2022-12-21T08:52:22.064Z,15.67
2022-12-21T08:54:48.423Z,14.13
2022-12-21T08:57:14.751Z,14.33
2022-12-21T08:59:46.413Z,13.63
2022-12-21T09:02:15.080Z,12.90
2022-12-21T09:04:41.662Z,11.93
2022-12-21T09:07:08.094Z,13.23
2022-12-21T09:09:34.724Z,12.93
2022-12-21T09:12:01.538Z,13.23
2022-12-21T09:14:28.859Z,12.37
2022-12-21T09:16:55.380Z,11.47
2022-12-21T09:19:22.147Z,11.97
2022-12-21T09:21:48.504Z,11.97
2022-12-21T09:24:14.897Z,11.27
2022-12-21T09:26:42.168Z,13.03
2022-12-21T09:29:10.952Z,12.73
2022-12-21T09:31:37.440Z,12.77
2022-12-21T09:34:03.860Z,12.63
2022-12-21T09:36:30.370Z,13.37
2022-12-21T09:38:57.408Z,12.40
2022-12-21T09:41:30.476Z,15.30
2022-12-21T09:44:21.771Z,14.20
2022-12-21T09:46:52.191Z,15.47
2022-12-21T09:49:22.559Z,14.90
2022-12-21T09:51:58.788Z,14.17
2022-12-21T09:54:36.795Z,15.07
2022-12-21T09:57:06.922Z,13.83
2022-12-21T09:59:33.290Z,14.53
2022-12-21T10:02:34.150Z,15.63
2022-12-21T10:05:20.986Z,15.37
2022-12-21T10:08:00.795Z,15.90
2022-12-21T10:10:39.996Z,15.53
2022-12-21T10:13:41.350Z,15.20
2022-12-21T10:16:28.531Z,16.07
2022-12-21T10:19:32.905Z,18.63
2022-12-21T10:22:14.094Z,18.57
2022-12-21T10:24:54.593Z,20.77
2022-12-21T10:27:22.850Z,20.93
2022-12-21T10:29:57.786Z,23.10
2022-12-21T10:32:35.314Z,23.43
2022-12-21T10:35:28.813Z,23.43
2022-12-21T10:37:56.237Z,23.03
2022-12-21T10:40:27.562Z,23.70
2022-12-21T10:42:54.852Z,22.17
2022-12-21T10:45:26.808Z,21.23
2022-12-21T10:47:54.303Z,21.30
2022-12-21T10:50:33.321Z,21.47
2022-12-21T10:53:16.444Z,20.40
2022-12-21T10:55:44.673Z,20.50
2022-12-21T10:58:11.032Z,19.70
2022-12-21T11:00:48.533Z,17.50
2022-12-21T11:03:29.162Z,16.67
2022-12-21T11:05:56.726Z,17.07
2022-12-21T11:08:26.859Z,16.63
2022-12-21T11:10:59.593Z,15.93
2022-12-21T11:13:28.112Z,16.03
2022-12-21T11:16:13.305Z,14.33
2022-12-21T11:18:46.920Z,12.87
2022-12-21T11:21:13.215Z,12.73
2022-12-21T11:23:39.932Z,14.00
2022-12-21T11:26:16.087Z,11.33
2022-12-21T11:28:43.151Z,12.03
2022-12-21T11:31:09.895Z,12.40
2022-12-21T11:33:36.442Z,12.60
2022-12-21T11:36:12.652Z,12.63
2022-12-21T11:38:40.047Z,10.70
2022-12-21T11:41:16.626Z,10.50
2022-12-21T11:43:50.839Z,11.00
2022-12-21T11:46:49.231Z,10.47
2022-12-21T11:49:35.196Z,9.80
2022-12-21T11:52:07.406Z,8.67
2022-12-21T11:54:36.840Z,8.63
2022-12-21T11:57:06.058Z,8.57
2022-12-21T11:59:38.600Z,7.47
2022-12-21T12:02:15.088Z,7.70
2022-12-21T12:05:04.805Z,8.23
2022-12-21T12:07:55.370Z,6.97
2022-12-21T12:10:52.403Z,7.03
2022-12-21T12:13:41.533Z,7.50
2022-12-21T12:16:14.666Z,8.87
2022-12-21T12:18:58.013Z,7.67
2022-12-21T12:21:39.471Z,9.20
2022-12-21T12:24:30.487Z,8.27
2022-12-21T12:27:20.296Z,9.03
2022-12-21T12:30:13.348Z,9.30
2022-12-21T12:33:06.505Z,10.10
2022-12-21T12:35:35.553Z,10.67
2022-12-21T12:38:32.846Z,11.70
2022-12-21T12:41:22.001Z,11.57
2022-12-21T12:44:16.115Z,11.00
2022-12-21T12:47:07.491Z,11.97
2022-12-21T12:49:54.839Z,12.93
2022-12-21T12:52:54.064Z,12.63
2022-12-21T12:55:39.952Z,13.93
2022-12-21T12:58:23.381Z,13.57
2022-12-21T13:01:17.696Z,14.00
2022-12-21T13:04:17.485Z,12.70
2022-12-21T13:06:53.069Z,11.93
2022-12-21T13:09:29.285Z,12.13
2022-12-21T13:12:21.913Z,13.30
2022-12-21T13:14:57.309Z,12.53
2022-12-21T13:17:38.799Z,11.27
2022-12-21T13:20:07.160Z,10.30
2022-12-21T13:22:37.105Z,10.30
2022-12-21T13:25:19.323Z,10.43
2022-12-21T13:27:47.744Z,11.13
2022-12-21T13:30:20.287Z,10.70
2022-12-21T13:32:54.567Z,10.03
2022-12-21T13:35:35.678Z,10.03
2022-12-21T13:38:09.739Z,7.83
2022-12-21T13:40:43.064Z,7.97
2022-12-21T13:43:19.646Z,7.83
2022-12-21T13:45:55.926Z,8.67
2022-12-21T13:48:29.560Z,7.23
2022-12-21T13:51:27.079Z,6.17
2022-12-21T13:54:21.323Z,7.40
2022-12-21T13:56:53.783Z,5.70
2022-12-21T13:59:44.853Z,5.17
2022-12-21T14:02:47.563Z,5.77
2022-12-21T14:05:20.039Z,8.47
2022-12-21T14:08:04.899Z,6.10
2022-12-21T14:11:11.948Z,6.13
2022-12-21T14:13:47.473Z,5.13
2022-12-21T14:16:17.970Z,5.70
2022-12-21T14:18:45.988Z,5.30
2022-12-21T14:21:12.305Z,5.37
2022-12-21T14:23:51.103Z,5.83
2022-12-21T14:26:43.402Z,5.30
2022-12-21T14:29:36.489Z,5.60
2022-12-21T14:32:13.399Z,5.07
2022-12-21T14:34:51.737Z,5.07
2022-12-21T14:37:21.910Z,4.90
2022-12-21T14:39:48.219Z,5.23
2022-12-21T14:42:37.032Z,4.70
2022-12-21T14:45:12.812Z,5.27
2022-12-21T14:47:41.084Z,5.17
2022-12-21T14:50:19.621Z,7.60
2022-12-21T14:52:58.321Z,4.77
2022-12-21T14:55:36.940Z,4.43
2022-12-21T14:58:43.136Z,5.30
2022-12-21T15:01:13.409Z,5.23
2022-12-21T15:03:47.795Z,5.10
2022-12-21T15:06:42.923Z,4.77
2022-12-21T15:09:21.245Z,5.87
2022-12-21T15:11:55.856Z,5.10
2022-12-21T15:14:29.902Z,6.00
2022-12-21T15:17:00.713Z,6.93
2022-12-21T15:19:42.515Z,6.53
2022-12-21T15:22:33.666Z,6.37
2022-12-21T15:25:13.725Z,10.47
2022-12-21T15:27:59.142Z,8.63
2022-12-21T15:30:35.798Z,9.30
2022-12-21T15:33:15.665Z,8.40
2022-12-21T15:35:44.756Z,8.03
2022-12-21T15:38:30.194Z,7.37
2022-12-21T15:41:06.070Z,6.83
2022-12-21T15:43:57.770Z,6.60
2022-12-21T15:46:41.450Z,6.50
2022-12-21T15:49:08.699Z,8.75
2022-12-21T15:51:40.680Z,8.53
2022-12-21T15:54:17.888Z,6.63
2022-12-21T15:56:54.352Z,8.10
2022-12-21T15:59:30.191Z,6.70
2022-12-21T16:01:58.103Z,6.53
2022-12-21T16:04:27.619Z,6.03
2022-12-21T16:06:59.398Z,7.50
2022-12-21T16:09:28.338Z,6.37
2022-12-21T16:12:19.974Z,8.53
2022-12-21T16:14:41.014Z,6.27
2022-12-21T16:17:23.683Z,5.80
2022-12-21T16:19:55.326Z,5.60
2022-12-21T16:22:24.997Z,5.57
2022-12-21T16:25:29.374Z,5.60
2022-12-21T16:27:47.924Z,5.33
2022-12-21T16:30:15.115Z,5.10
2022-12-21T16:32:41.469Z,5.80
2022-12-21T16:35:19.098Z,5.27
2022-12-21T16:37:45.865Z,4.83
2022-12-21T16:40:22.105Z,5.90
2022-12-21T16:42:52.340Z,4.87
2022-12-21T16:45:21.673Z,4.80
2022-12-21T16:48:16.051Z,5.00
2022-12-21T16:50:54.448Z,5.23
2022-12-21T16:53:36.102Z,5.20
2022-12-21T16:56:17.923Z,5.17
2022-12-21T16:58:54.983Z,6.03
2022-12-21T17:01:40.336Z,5.83
2022-12-21T17:04:30.163Z,6.70
2022-12-21T17:06:59.728Z,7.50
2022-12-21T17:09:29.009Z,5.37
2022-12-21T17:12:03.142Z,5.60
2022-12-21T17:14:31.924Z,6.07
2022-12-21T17:17:19.356Z,6.17
2022-12-21T17:20:15.464Z,5.67
2022-12-21T17:22:55.679Z,5.20
2022-12-21T17:25:22.058Z,5.00
2022-12-21T17:27:59.858Z,4.87
2022-12-21T17:30:29.985Z,5.03
2022-12-21T17:32:56.709Z,5.10
2022-12-21T17:35:23.830Z,5.00
2022-12-21T17:37:54.672Z,5.00
2022-12-21T17:40:23.816Z,4.70
2022-12-21T17:42:50.582Z,4.40
2022-12-21T17:45:19.321Z,4.70
2022-12-21T17:47:47.265Z,4.67
2022-12-21T17:50:43.039Z,5.43
2022-12-21T17:53:20.859Z,3.90
2022-12-21T17:55:48.163Z,3.83
2022-12-21T17:58:14.770Z,3.07
2022-12-21T18:00:42.697Z,3.67
2022-12-21T18:03:18.594Z,2.67
2022-12-21T18:05:45.366Z,3.90
2022-12-21T18:08:13.299Z,3.53
2022-12-21T18:10:41.094Z,3.10
2022-12-21T18:13:07.764Z,3.10
2022-12-21T18:15:36.952Z,3.47
2022-12-21T18:18:07.596Z,3.43
2022-12-21T18:20:40.343Z,2.77
2022-12-21T18:23:16.151Z,2.83
2022-12-21T18:25:43.471Z,3.00
2022-12-21T18:28:15.858Z,3.00
2022-12-21T18:30:45.590Z,3.13
2022-12-21T18:33:14.961Z,3.27
2022-12-21T18:35:42.018Z,2.83
2022-12-21T18:38:16.575Z,2.97
2022-12-21T18:40:42.944Z,3.63
2022-12-21T18:43:27.579Z,2.90
2022-12-21T18:46:01.613Z,4.60
2022-12-21T18:48:29.373Z,3.57
2022-12-21T18:50:55.947Z,3.40
2022-12-21T18:53:22.794Z,3.47
2022-12-21T18:55:49.775Z,3.37
2022-12-21T18:58:16.222Z,3.33
2022-12-21T19:00:44.867Z,3.37
2022-12-21T19:03:26.209Z,3.33
2022-12-21T19:05:54.477Z,3.77
2022-12-21T19:08:22.442Z,3.67
2022-12-21T19:10:49.306Z,4.03
2022-12-21T19:13:31.001Z,3.57
2022-12-21T19:16:06.218Z,3.27
2022-12-21T19:18:40.379Z,3.67
2022-12-21T19:21:07.229Z,3.50
2022-12-21T19:23:33.697Z,3.57
2022-12-21T19:26:00.075Z,3.37
2022-12-21T19:28:26.450Z,3.80
2022-12-21T19:30:52.845Z,4.00
2022-12-21T19:33:19.394Z,4.57
2022-12-21T19:35:50.257Z,4.20
2022-12-21T19:38:23.005Z,4.90
2022-12-21T19:40:53.279Z,5.40
2022-12-21T19:43:20.416Z,4.67
2022-12-21T19:45:47.017Z,4.20
2022-12-21T19:48:37.071Z,4.67
2022-12-21T19:51:09.488Z,5.47
2022-12-21T19:53:44.741Z,5.67
2022-12-21T19:56:20.273Z,4.60
2022-12-21T19:58:48.983Z,3.93
2022-12-21T20:01:29.931Z,3.93
2022-12-21T20:03:58.334Z,3.87
2022-12-21T20:06:25.787Z,3.53
2022-12-21T20:08:52.189Z,4.00
2022-12-21T20:11:20.490Z,4.37
2022-12-21T20:13:48.692Z,4.70
2022-12-21T20:16:16.582Z,5.23
2022-12-21T20:18:43.915Z,4.77
2022-12-21T20:21:21.738Z,4.93
2022-12-21T20:23:52.145Z,3.60
2022-12-21T20:26:26.431Z,4.70
2022-12-21T20:28:56.151Z,5.23
2022-12-21T20:31:23.010Z,5.00
2022-12-21T20:33:50.955Z,5.00
2022-12-21T20:36:37.312Z,7.03
2022-12-21T20:39:12.678Z,4.90
2022-12-21T20:41:57.793Z,5.30
2022-12-21T20:44:24.410Z,4.47
2022-12-21T20:46:51.006Z,4.90
2022-12-21T20:49:24.647Z,5.53
2022-12-21T20:51:51.846Z,4.17
2022-12-21T20:54:20.513Z,5.83
2022-12-21T20:56:49.109Z,4.73
2022-12-21T20:59:16.352Z,4.53
2022-12-21T21:01:58.142Z,4.37
2022-12-21T21:04:27.757Z,5.13
2022-12-21T21:06:54.492Z,4.80
2022-12-21T21:09:31.921Z,5.50
2022-12-21T21:12:00.868Z,5.67
2022-12-21T21:14:27.290Z,5.87
2022-12-21T21:16:55.308Z,5.40
2022-12-21T21:19:43.331Z,6.13
2022-12-21T21:22:56.471Z,5.83
2022-12-21T21:25:36.136Z,6.13
2022-12-21T21:28:23.896Z,7.10
2022-12-21T21:30:53.064Z,7.83
2022-12-21T21:33:20.137Z,6.87
2022-12-21T21:35:49.784Z,7.13
2022-12-21T21:38:44.468Z,8.07
2022-12-21T21:41:32.962Z,7.17
2022-12-21T21:44:30.590Z,5.80
2022-12-21T21:46:58.977Z,5.77
2022-12-21T21:49:32.212Z,6.07
2022-12-21T21:51:58.619Z,5.73
2022-12-21T21:54:25.566Z,4.73
2022-12-21T21:56:54.589Z,5.27
2022-12-21T21:59:26.043Z,5.37
2022-12-21T22:01:55.752Z,5.07
2022-12-21T22:04:22.948Z,5.90
2022-12-21T22:06:50.456Z,6.13
2022-12-21T22:09:16.814Z,6.60
2022-12-21T22:11:46.455Z,4.80
2022-12-21T22:14:21.904Z,5.00
2022-12-21T22:19:55.322Z,5.20
2022-12-21T22:22:41.718Z,5.17
2022-12-21T22:25:35.063Z,6.23
2022-12-21T22:28:21.623Z,5.60
2022-12-21T22:31:07.117Z,5.60
2022-12-21T22:33:33.501Z,6.13
2022-12-21T22:36:18.371Z,4.23
2022-12-21T22:39:03.106Z,5.60
2022-12-21T22:41:47.933Z,5.83
2022-12-21T22:44:14.290Z,5.60
2022-12-21T22:46:40.729Z,5.00
2022-12-21T22:49:07.084Z,5.80
2022-12-21T22:51:33.512Z,5.97
2022-12-21T22:54:03.113Z,8.33
2022-12-21T22:56:34.041Z,6.00
2022-12-21T22:59:08.559Z,4.93
2022-12-21T23:01:35.691Z,6.10
2022-12-21T23:04:03.512Z,6.80
2022-12-21T23:06:30.073Z,6.63
2022-12-21T23:08:56.425Z,6.90
2022-12-21T23:11:35.104Z,5.97
2022-12-21T23:14:35.374Z,6.03
2022-12-21T23:17:05.629Z,5.17
2022-12-21T23:19:31.977Z,6.07
2022-12-21T23:22:17.110Z,5.70
2022-12-21T23:25:02.812Z,5.70
2022-12-21T23:27:53.683Z,5.70
2022-12-21T23:31:01.373Z,6.77
2022-12-21T23:33:48.709Z,5.80
2022-12-21T23:36:39.028Z,5.40
2022-12-21T23:39:41.617Z,5.27
2022-12-21T23:42:36.406Z,4.90
2022-12-21T23:45:03.163Z,4.73
2022-12-21T23:47:47.754Z,5.10
2022-12-21T23:50:32.491Z,5.57
2022-12-21T23:53:17.756Z,6.17
2022-12-21T23:56:03.041Z,5.70
2022-12-21T23:58:47.805Z,6.20
